sensor_id;sensor_type;location;lat;lon;timestamp;P1;durP1;ratioP1;P2;durP2;ratioP2
69417;SDS011;56610;48.872;2.400;2023-04-06T00:01:35;14.32;;;9.70;;
69417;SDS011;56610;48.872;2.400;2023-04-06T00:04:00;11.57;;;9.55;;
69417;SDS011;56610;48.872;2.400;2023-04-06T00:06:26;10.65;;;8.90;;
69417;SDS011;56610;48.872;2.400;2023-04-06T00:08:52;11.20;;;9.05;;
69417;SDS011;56610;48.872;2.400;2023-04-06T00:11:17;10.27;;;7.97;;
69417;SDS011;56610;48.872;2.400;2023-04-06T00:13:43;9.45;;;8.35;;
69417;SDS011;56610;48.872;2.400;2023-04-06T00:16:08;11.13;;;8.13;;
69417;SDS011;56610;48.872;2.400;2023-04-06T00:18:34;10.30;;;8.73;;
69417;SDS011;56610;48.872;2.400;2023-04-06T00:20:59;10.68;;;8.40;;
69417;SDS011;56610;48.872;2.400;2023-04-06T00:23:25;10.98;;;8.10;;
69417;SDS011;56610;48.872;2.400;2023-04-06T00:25:51;11.50;;;8.07;;
69417;SDS011;56610;48.872;2.400;2023-04-06T00:28:16;11.38;;;8.77;;
69417;SDS011;56610;48.872;2.400;2023-04-06T00:30:42;11.15;;;9.82;;
69417;SDS011;56610;48.872;2.400;2023-04-06T00:33:08;14.82;;;10.10;;
69417;SDS011;56610;48.872;2.400;2023-04-06T00:35:33;13.40;;;9.90;;
69417;SDS011;56610;48.872;2.400;2023-04-06T00:37:59;12.38;;;9.50;;
69417;SDS011;56610;48.872;2.400;2023-04-06T00:40:25;12.50;;;10.23;;
69417;SDS011;56610;48.872;2.400;2023-04-06T00:42:53;11.98;;;9.43;;
69417;SDS011;56610;48.872;2.400;2023-04-06T00:45:19;13.80;;;10.55;;
69417;SDS011;56610;48.872;2.400;2023-04-06T00:47:45;11.85;;;10.15;;
69417;SDS011;56610;48.872;2.400;2023-04-06T00:50:10;13.38;;;9.55;;
69417;SDS011;56610;48.872;2.400;2023-04-06T00:52:36;13.27;;;9.57;;
69417;SDS011;56610;48.872;2.400;2023-04-06T00:55:02;10.02;;;8.68;;
69417;SDS011;56610;48.872;2.400;2023-04-06T00:57:28;12.15;;;10.13;;
69417;SDS011;56610;48.872;2.400;2023-04-06T00:59:54;11.20;;;9.40;;
69417;SDS011;56610;48.872;2.400;2023-04-06T01:02:20;11.48;;;9.48;;
69417;SDS011;56610;48.872;2.400;2023-04-06T01:04:46;12.52;;;9.75;;
69417;SDS011;56610;48.872;2.400;2023-04-06T01:07:12;13.77;;;9.43;;
69417;SDS011;56610;48.872;2.400;2023-04-06T01:09:37;11.43;;;9.23;;
69417;SDS011;56610;48.872;2.400;2023-04-06T01:12:06;13.10;;;9.52;;
69417;SDS011;56610;48.872;2.400;2023-04-06T01:14:31;12.60;;;9.15;;
69417;SDS011;56610;48.872;2.400;2023-04-06T01:16:57;11.02;;;9.63;;
69417;SDS011;56610;48.872;2.400;2023-04-06T01:19:24;11.63;;;9.23;;
69417;SDS011;56610;48.872;2.400;2023-04-06T01:21:49;13.20;;;9.23;;
69417;SDS011;56610;48.872;2.400;2023-04-06T01:24:15;12.05;;;9.88;;
69417;SDS011;56610;48.872;2.400;2023-04-06T01:26:41;13.15;;;10.00;;
69417;SDS011;56610;48.872;2.400;2023-04-06T01:29:07;14.85;;;10.60;;
69417;SDS011;56610;48.872;2.400;2023-04-06T01:31:33;12.90;;;9.50;;
69417;SDS011;56610;48.872;2.400;2023-04-06T01:33:58;11.07;;;9.00;;
69417;SDS011;56610;48.872;2.400;2023-04-06T01:36:24;11.02;;;9.45;;
69417;SDS011;56610;48.872;2.400;2023-04-06T01:38:50;12.07;;;9.10;;
69417;SDS011;56610;48.872;2.400;2023-04-06T01:41:15;10.02;;;8.55;;
69417;SDS011;56610;48.872;2.400;2023-04-06T01:43:41;12.55;;;9.75;;
69417;SDS011;56610;48.872;2.400;2023-04-06T01:46:07;11.45;;;9.23;;
69417;SDS011;56610;48.872;2.400;2023-04-06T01:48:32;11.98;;;9.32;;
69417;SDS011;56610;48.872;2.400;2023-04-06T01:50:58;10.48;;;9.07;;
69417;SDS011;56610;48.872;2.400;2023-04-06T01:53:23;12.10;;;9.10;;
69417;SDS011;56610;48.872;2.400;2023-04-06T01:55:49;10.60;;;8.95;;
69417;SDS011;56610;48.872;2.400;2023-04-06T01:58:14;12.52;;;9.35;;
69417;SDS011;56610;48.872;2.400;2023-04-06T02:00:40;13.70;;;9.30;;
69417;SDS011;56610;48.872;2.400;2023-04-06T02:03:06;12.02;;;8.93;;
69417;SDS011;56610;48.872;2.400;2023-04-06T02:05:32;10.60;;;9.02;;
69417;SDS011;56610;48.872;2.400;2023-04-06T02:08:02;12.18;;;9.32;;
69417;SDS011;56610;48.872;2.400;2023-04-06T02:10:29;12.07;;;9.60;;
69417;SDS011;56610;48.872;2.400;2023-04-06T02:12:55;11.68;;;9.63;;
69417;SDS011;56610;48.872;2.400;2023-04-06T02:15:20;12.30;;;9.77;;
69417;SDS011;56610;48.872;2.400;2023-04-06T02:17:46;11.38;;;8.95;;
69417;SDS011;56610;48.872;2.400;2023-04-06T02:20:11;11.55;;;9.18;;
69417;SDS011;56610;48.872;2.400;2023-04-06T02:22:37;12.70;;;9.60;;
69417;SDS011;56610;48.872;2.400;2023-04-06T02:25:04;11.73;;;9.02;;
69417;SDS011;56610;48.872;2.400;2023-04-06T02:27:30;12.55;;;10.48;;
69417;SDS011;56610;48.872;2.400;2023-04-06T02:29:55;15.18;;;10.88;;
69417;SDS011;56610;48.872;2.400;2023-04-06T02:32:21;13.05;;;9.65;;
69417;SDS011;56610;48.872;2.400;2023-04-06T02:34:46;13.60;;;9.98;;
69417;SDS011;56610;48.872;2.400;2023-04-06T02:37:12;11.95;;;9.50;;
69417;SDS011;56610;48.872;2.400;2023-04-06T02:39:38;9.43;;;8.35;;
69417;SDS011;56610;48.872;2.400;2023-04-06T02:42:03;12.25;;;9.43;;
69417;SDS011;56610;48.872;2.400;2023-04-06T02:44:29;11.25;;;9.57;;
69417;SDS011;56610;48.872;2.400;2023-04-06T02:46:55;12.40;;;9.75;;
69417;SDS011;56610;48.872;2.400;2023-04-06T02:49:20;11.38;;;9.02;;
69417;SDS011;56610;48.872;2.400;2023-04-06T02:51:46;11.00;;;9.27;;
69417;SDS011;56610;48.872;2.400;2023-04-06T02:54:12;11.25;;;8.43;;
69417;SDS011;56610;48.872;2.400;2023-04-06T02:56:37;14.80;;;9.20;;
69417;SDS011;56610;48.872;2.400;2023-04-06T02:59:03;12.80;;;8.80;;
69417;SDS011;56610;48.872;2.400;2023-04-06T03:01:28;11.85;;;9.30;;
69417;SDS011;56610;48.872;2.400;2023-04-06T03:03:54;10.25;;;8.90;;
69417;SDS011;56610;48.872;2.400;2023-04-06T03:06:19;13.68;;;9.50;;
69417;SDS011;56610;48.872;2.400;2023-04-06T03:08:45;13.60;;;9.45;;
69417;SDS011;56610;48.872;2.400;2023-04-06T03:11:12;12.73;;;9.30;;
69417;SDS011;56610;48.872;2.400;2023-04-06T03:13:37;11.63;;;9.65;;
69417;SDS011;56610;48.872;2.400;2023-04-06T03:16:06;12.00;;;8.32;;
69417;SDS011;56610;48.872;2.400;2023-04-06T03:18:32;10.80;;;9.15;;
69417;SDS011;56610;48.872;2.400;2023-04-06T03:20:57;11.73;;;9.30;;
69417;SDS011;56610;48.872;2.400;2023-04-06T03:23:25;12.30;;;8.53;;
69417;SDS011;56610;48.872;2.400;2023-04-06T03:25:50;12.65;;;9.82;;
69417;SDS011;56610;48.872;2.400;2023-04-06T03:28:16;12.52;;;9.85;;
69417;SDS011;56610;48.872;2.400;2023-04-06T03:30:42;10.38;;;8.65;;
69417;SDS011;56610;48.872;2.400;2023-04-06T03:33:07;11.95;;;8.55;;
69417;SDS011;56610;48.872;2.400;2023-04-06T03:35:33;10.93;;;8.45;;
69417;SDS011;56610;48.872;2.400;2023-04-06T03:37:58;10.25;;;8.95;;
69417;SDS011;56610;48.872;2.400;2023-04-06T03:40:24;12.88;;;9.23;;
69417;SDS011;56610;48.872;2.400;2023-04-06T03:42:50;10.35;;;8.40;;
69417;SDS011;56610;48.872;2.400;2023-04-06T03:45:16;12.02;;;8.63;;
69417;SDS011;56610;48.872;2.400;2023-04-06T03:47:41;11.35;;;8.90;;
69417;SDS011;56610;48.872;2.400;2023-04-06T03:50:07;10.48;;;8.40;;
69417;SDS011;56610;48.872;2.400;2023-04-06T03:52:34;10.70;;;8.20;;
69417;SDS011;56610;48.872;2.400;2023-04-06T03:55:00;12.77;;;8.40;;
69417;SDS011;56610;48.872;2.400;2023-04-06T03:57:26;11.35;;;8.55;;
69417;SDS011;56610;48.872;2.400;2023-04-06T03:59:51;10.15;;;8.60;;
69417;SDS011;56610;48.872;2.400;2023-04-06T04:02:17;10.23;;;8.07;;
69417;SDS011;56610;48.872;2.400;2023-04-06T04:04:42;11.80;;;8.70;;
69417;SDS011;56610;48.872;2.400;2023-04-06T04:07:08;11.23;;;8.45;;
69417;SDS011;56610;48.872;2.400;2023-04-06T04:09:33;10.52;;;8.48;;
69417;SDS011;56610;48.872;2.400;2023-04-06T04:11:59;9.25;;;8.00;;
69417;SDS011;56610;48.872;2.400;2023-04-06T04:14:25;11.63;;;8.52;;
69417;SDS011;56610;48.872;2.400;2023-04-06T04:16:50;11.50;;;8.05;;
69417;SDS011;56610;48.872;2.400;2023-04-06T04:19:16;11.15;;;7.93;;
69417;SDS011;56610;48.872;2.400;2023-04-06T04:21:42;11.55;;;8.65;;
69417;SDS011;56610;48.872;2.400;2023-04-06T04:24:09;11.07;;;8.00;;
69417;SDS011;56610;48.872;2.400;2023-04-06T04:26:35;11.38;;;8.27;;
69417;SDS011;56610;48.872;2.400;2023-04-06T04:29:01;10.52;;;8.20;;
69417;SDS011;56610;48.872;2.400;2023-04-06T04:31:26;9.20;;;7.85;;
69417;SDS011;56610;48.872;2.400;2023-04-06T04:33:52;10.45;;;8.20;;
69417;SDS011;56610;48.872;2.400;2023-04-06T04:36:17;11.60;;;7.93;;
69417;SDS011;56610;48.872;2.400;2023-04-06T04:38:43;10.48;;;8.18;;
69417;SDS011;56610;48.872;2.400;2023-04-06T04:41:08;10.95;;;7.90;;
69417;SDS011;56610;48.872;2.400;2023-04-06T04:43:34;10.20;;;8.13;;
69417;SDS011;56610;48.872;2.400;2023-04-06T04:45:59;8.88;;;7.63;;
69417;SDS011;56610;48.872;2.400;2023-04-06T04:48:25;10.10;;;7.65;;
69417;SDS011;56610;48.872;2.400;2023-04-06T04:50:51;9.60;;;7.88;;
69417;SDS011;56610;48.872;2.400;2023-04-06T04:53:16;11.70;;;7.78;;
69417;SDS011;56610;48.872;2.400;2023-04-06T04:55:42;9.95;;;7.35;;
69417;SDS011;56610;48.872;2.400;2023-04-06T04:58:07;13.55;;;8.55;;
69417;SDS011;56610;48.872;2.400;2023-04-06T05:00:34;10.35;;;7.78;;
69417;SDS011;56610;48.872;2.400;2023-04-06T05:03:00;10.65;;;8.23;;
69417;SDS011;56610;48.872;2.400;2023-04-06T05:05:25;11.35;;;7.88;;
69417;SDS011;56610;48.872;2.400;2023-04-06T05:07:51;10.25;;;7.80;;
69417;SDS011;56610;48.872;2.400;2023-04-06T05:10:16;10.88;;;7.57;;
69417;SDS011;56610;48.872;2.400;2023-04-06T05:12:42;11.35;;;7.72;;
69417;SDS011;56610;48.872;2.400;2023-04-06T05:15:08;10.07;;;8.25;;
69417;SDS011;56610;48.872;2.400;2023-04-06T05:17:34;11.48;;;8.10;;
69417;SDS011;56610;48.872;2.400;2023-04-06T05:20:00;11.75;;;8.65;;
69417;SDS011;56610;48.872;2.400;2023-04-06T05:22:25;8.90;;;7.65;;
69417;SDS011;56610;48.872;2.400;2023-04-06T05:24:51;9.85;;;7.15;;
69417;SDS011;56610;48.872;2.400;2023-04-06T05:27:17;10.60;;;8.13;;
69417;SDS011;56610;48.872;2.400;2023-04-06T05:29:42;11.95;;;7.97;;
69417;SDS011;56610;48.872;2.400;2023-04-06T05:32:08;10.68;;;7.97;;
69417;SDS011;56610;48.872;2.400;2023-04-06T05:34:33;10.48;;;8.13;;
69417;SDS011;56610;48.872;2.400;2023-04-06T05:36:59;10.70;;;8.40;;
69417;SDS011;56610;48.872;2.400;2023-04-06T05:39:25;10.40;;;7.82;;
69417;SDS011;56610;48.872;2.400;2023-04-06T05:41:50;10.40;;;8.40;;
69417;SDS011;56610;48.872;2.400;2023-04-06T05:44:16;11.05;;;7.78;;
69417;SDS011;56610;48.872;2.400;2023-04-06T05:46:41;8.80;;;7.57;;
69417;SDS011;56610;48.872;2.400;2023-04-06T05:49:07;9.98;;;7.43;;
69417;SDS011;56610;48.872;2.400;2023-04-06T05:51:32;11.32;;;8.50;;
69417;SDS011;56610;48.872;2.400;2023-04-06T05:53:58;10.38;;;8.15;;
69417;SDS011;56610;48.872;2.400;2023-04-06T05:56:24;10.45;;;7.13;;
69417;SDS011;56610;48.872;2.400;2023-04-06T05:58:50;9.10;;;7.25;;
69417;SDS011;56610;48.872;2.400;2023-04-06T06:01:15;9.23;;;7.78;;
69417;SDS011;56610;48.872;2.400;2023-04-06T06:03:41;11.80;;;7.82;;
69417;SDS011;56610;48.872;2.400;2023-04-06T06:06:07;9.52;;;7.82;;
69417;SDS011;56610;48.872;2.400;2023-04-06T06:08:32;9.32;;;7.45;;
69417;SDS011;56610;48.872;2.400;2023-04-06T06:10:58;9.75;;;7.57;;
69417;SDS011;56610;48.872;2.400;2023-04-06T06:13:24;10.95;;;7.90;;
69417;SDS011;56610;48.872;2.400;2023-04-06T06:15:49;9.18;;;7.63;;
69417;SDS011;56610;48.872;2.400;2023-04-06T06:18:15;9.27;;;7.30;;
69417;SDS011;56610;48.872;2.400;2023-04-06T06:20:41;8.98;;;7.68;;
69417;SDS011;56610;48.872;2.400;2023-04-06T06:23:06;10.65;;;7.85;;
69417;SDS011;56610;48.872;2.400;2023-04-06T06:25:32;9.48;;;7.93;;
69417;SDS011;56610;48.872;2.400;2023-04-06T06:27:58;12.15;;;7.18;;
69417;SDS011;56610;48.872;2.400;2023-04-06T06:30:23;11.27;;;7.63;;
69417;SDS011;56610;48.872;2.400;2023-04-06T06:32:50;11.07;;;8.23;;
69417;SDS011;56610;48.872;2.400;2023-04-06T06:35:15;9.35;;;7.65;;
69417;SDS011;56610;48.872;2.400;2023-04-06T06:37:41;8.95;;;7.30;;
69417;SDS011;56610;48.872;2.400;2023-04-06T06:40:08;9.98;;;7.53;;
69417;SDS011;56610;48.872;2.400;2023-04-06T06:42:35;11.30;;;7.95;;
69417;SDS011;56610;48.872;2.400;2023-04-06T06:45:00;8.57;;;6.75;;
69417;SDS011;56610;48.872;2.400;2023-04-06T06:47:26;11.48;;;8.13;;
69417;SDS011;56610;48.872;2.400;2023-04-06T06:49:52;9.30;;;8.13;;
69417;SDS011;56610;48.872;2.400;2023-04-06T06:52:17;11.60;;;7.82;;
69417;SDS011;56610;48.872;2.400;2023-04-06T06:54:43;7.47;;;6.65;;
69417;SDS011;56610;48.872;2.400;2023-04-06T06:57:09;8.88;;;7.75;;
69417;SDS011;56610;48.872;2.400;2023-04-06T06:59:35;9.40;;;7.85;;
69417;SDS011;56610;48.872;2.400;2023-04-06T07:02:00;10.15;;;7.32;;
69417;SDS011;56610;48.872;2.400;2023-04-06T07:04:26;9.52;;;6.55;;
69417;SDS011;56610;48.872;2.400;2023-04-06T07:06:51;8.32;;;6.95;;
69417;SDS011;56610;48.872;2.400;2023-04-06T07:09:17;8.18;;;6.75;;
69417;SDS011;56610;48.872;2.400;2023-04-06T07:11:43;8.88;;;6.63;;
69417;SDS011;56610;48.872;2.400;2023-04-06T07:14:09;6.57;;;5.78;;
69417;SDS011;56610;48.872;2.400;2023-04-06T07:16:36;9.17;;;6.90;;
69417;SDS011;56610;48.872;2.400;2023-04-06T07:19:02;8.93;;;7.40;;
69417;SDS011;56610;48.872;2.400;2023-04-06T07:21:27;8.82;;;6.60;;
69417;SDS011;56610;48.872;2.400;2023-04-06T07:23:53;9.32;;;6.60;;
69417;SDS011;56610;48.872;2.400;2023-04-06T07:26:18;8.23;;;6.60;;
69417;SDS011;56610;48.872;2.400;2023-04-06T07:28:45;8.07;;;6.32;;
69417;SDS011;56610;48.872;2.400;2023-04-06T07:31:10;11.70;;;7.68;;
69417;SDS011;56610;48.872;2.400;2023-04-06T07:33:36;8.38;;;6.65;;
69417;SDS011;56610;48.872;2.400;2023-04-06T07:36:02;9.70;;;6.93;;
69417;SDS011;56610;48.872;2.400;2023-04-06T07:38:27;11.18;;;7.53;;
69417;SDS011;56610;48.872;2.400;2023-04-06T07:40:53;9.60;;;6.57;;
69417;SDS011;56610;48.872;2.400;2023-04-06T07:43:19;8.55;;;6.80;;
69417;SDS011;56610;48.872;2.400;2023-04-06T07:45:44;8.13;;;6.68;;
69417;SDS011;56610;48.872;2.400;2023-04-06T07:48:10;9.05;;;7.47;;
69417;SDS011;56610;48.872;2.400;2023-04-06T07:50:36;10.27;;;7.93;;
69417;SDS011;56610;48.872;2.400;2023-04-06T07:53:01;7.95;;;6.82;;
69417;SDS011;56610;48.872;2.400;2023-04-06T07:55:27;9.30;;;7.47;;
69417;SDS011;56610;48.872;2.400;2023-04-06T07:57:53;10.60;;;6.93;;
69417;SDS011;56610;48.872;2.400;2023-04-06T08:00:19;8.73;;;7.25;;
69417;SDS011;56610;48.872;2.400;2023-04-06T08:02:45;8.18;;;7.38;;
69417;SDS011;56610;48.872;2.400;2023-04-06T08:05:10;8.35;;;7.25;;
69417;SDS011;56610;48.872;2.400;2023-04-06T08:07:36;8.40;;;7.15;;
69417;SDS011;56610;48.872;2.400;2023-04-06T08:10:02;10.20;;;7.72;;
69417;SDS011;56610;48.872;2.400;2023-04-06T08:12:28;10.48;;;8.07;;
69417;SDS011;56610;48.872;2.400;2023-04-06T08:14:53;10.13;;;7.68;;
69417;SDS011;56610;48.872;2.400;2023-04-06T08:17:19;8.30;;;7.40;;
69417;SDS011;56610;48.872;2.400;2023-04-06T08:19:45;9.52;;;7.35;;
69417;SDS011;56610;48.872;2.400;2023-04-06T08:22:11;10.02;;;7.90;;
69417;SDS011;56610;48.872;2.400;2023-04-06T08:24:36;8.65;;;7.47;;
69417;SDS011;56610;48.872;2.400;2023-04-06T08:27:02;7.78;;;6.80;;
69417;SDS011;56610;48.872;2.400;2023-04-06T08:29:28;10.48;;;8.05;;
69417;SDS011;56610;48.872;2.400;2023-04-06T08:31:54;9.05;;;8.15;;
69417;SDS011;56610;48.872;2.400;2023-04-06T08:34:20;8.77;;;7.90;;
69417;SDS011;56610;48.872;2.400;2023-04-06T08:36:46;8.75;;;7.85;;
69417;SDS011;56610;48.872;2.400;2023-04-06T08:39:12;12.98;;;9.13;;
69417;SDS011;56610;48.872;2.400;2023-04-06T08:41:38;10.15;;;8.35;;
69417;SDS011;56610;48.872;2.400;2023-04-06T08:44:06;10.18;;;8.45;;
69417;SDS011;56610;48.872;2.400;2023-04-06T08:46:32;8.88;;;7.97;;
69417;SDS011;56610;48.872;2.400;2023-04-06T08:48:58;10.32;;;9.20;;
69417;SDS011;56610;48.872;2.400;2023-04-06T08:51:26;11.00;;;8.70;;
69417;SDS011;56610;48.872;2.400;2023-04-06T08:53:53;10.52;;;9.43;;
69417;SDS011;56610;48.872;2.400;2023-04-06T08:56:21;10.30;;;9.30;;
69417;SDS011;56610;48.872;2.400;2023-04-06T08:58:47;10.23;;;9.23;;
69417;SDS011;56610;48.872;2.400;2023-04-06T09:01:13;9.98;;;8.50;;
69417;SDS011;56610;48.872;2.400;2023-04-06T09:06:08;11.52;;;8.80;;
69417;SDS011;56610;48.872;2.400;2023-04-06T09:08:34;10.18;;;9.15;;
69417;SDS011;56610;48.872;2.400;2023-04-06T09:11:01;10.85;;;9.15;;
69417;SDS011;56610;48.872;2.400;2023-04-06T09:13:28;10.15;;;9.15;;
69417;SDS011;56610;48.872;2.400;2023-04-06T09:16:03;9.93;;;8.57;;
69417;SDS011;56610;48.872;2.400;2023-04-06T09:18:31;10.13;;;8.88;;
69417;SDS011;56610;48.872;2.400;2023-04-06T09:21:18;9.93;;;8.75;;
69417;SDS011;56610;48.872;2.400;2023-04-06T09:23:44;10.80;;;8.68;;
69417;SDS011;56610;48.872;2.400;2023-04-06T09:26:11;9.40;;;8.50;;
69417;SDS011;56610;48.872;2.400;2023-04-06T09:28:56;9.55;;;8.63;;
69417;SDS011;56610;48.872;2.400;2023-04-06T09:31:25;9.18;;;8.02;;
69417;SDS011;56610;48.872;2.400;2023-04-06T09:33:55;11.18;;;8.65;;
69417;SDS011;56610;48.872;2.400;2023-04-06T09:36:31;9.48;;;8.57;;
69417;SDS011;56610;48.872;2.400;2023-04-06T09:38:58;8.65;;;7.85;;
69417;SDS011;56610;48.872;2.400;2023-04-06T09:41:35;10.52;;;9.15;;
69417;SDS011;56610;48.872;2.400;2023-04-06T09:46:29;10.38;;;9.20;;
69417;SDS011;56610;48.872;2.400;2023-04-06T09:48:56;11.00;;;8.80;;
69417;SDS011;56610;48.872;2.400;2023-04-06T09:51:23;9.93;;;8.90;;
69417;SDS011;56610;48.872;2.400;2023-04-06T09:53:52;12.18;;;8.27;;
69417;SDS011;56610;48.872;2.400;2023-04-06T09:56:20;9.30;;;8.15;;
69417;SDS011;56610;48.872;2.400;2023-04-06T09:58:50;10.98;;;8.55;;
69417;SDS011;56610;48.872;2.400;2023-04-06T10:01:21;7.75;;;7.05;;
69417;SDS011;56610;48.872;2.400;2023-04-06T10:06:24;7.32;;;6.63;;
69417;SDS011;56610;48.872;2.400;2023-04-06T10:08:52;7.35;;;6.55;;
69417;SDS011;56610;48.872;2.400;2023-04-06T10:11:21;8.00;;;6.07;;
69417;SDS011;56610;48.872;2.400;2023-04-06T10:13:47;7.25;;;6.55;;
69417;SDS011;56610;48.872;2.400;2023-04-06T10:16:33;7.32;;;6.60;;
69417;SDS011;56610;48.872;2.400;2023-04-06T10:19:05;9.50;;;6.32;;
69417;SDS011;56610;48.872;2.400;2023-04-06T10:21:37;7.07;;;5.70;;
69417;SDS011;56610;48.872;2.400;2023-04-06T10:24:06;7.65;;;5.28;;
69417;SDS011;56610;48.872;2.400;2023-04-06T10:26:35;5.72;;;5.20;;
69417;SDS011;56610;48.872;2.400;2023-04-06T10:29:04;5.70;;;5.18;;
69417;SDS011;56610;48.872;2.400;2023-04-06T10:31:30;5.40;;;4.88;;
69417;SDS011;56610;48.872;2.400;2023-04-06T10:33:56;5.75;;;5.18;;
69417;SDS011;56610;48.872;2.400;2023-04-06T10:36:25;6.70;;;5.27;;
69417;SDS011;56610;48.872;2.400;2023-04-06T10:38:58;5.95;;;5.32;;
69417;SDS011;56610;48.872;2.400;2023-04-06T10:44:17;5.05;;;4.55;;
69417;SDS011;56610;48.872;2.400;2023-04-06T10:46:56;5.60;;;5.10;;
69417;SDS011;56610;48.872;2.400;2023-04-06T10:49:25;6.03;;;4.82;;
69417;SDS011;56610;48.872;2.400;2023-04-06T10:51:52;5.47;;;4.70;;
69417;SDS011;56610;48.872;2.400;2023-04-06T10:54:19;5.90;;;5.40;;
69417;SDS011;56610;48.872;2.400;2023-04-06T10:56:47;5.82;;;5.32;;
69417;SDS011;56610;48.872;2.400;2023-04-06T10:59:12;5.45;;;4.93;;
69417;SDS011;56610;48.872;2.400;2023-04-06T11:01:38;5.40;;;4.47;;
69417;SDS011;56610;48.872;2.400;2023-04-06T11:04:09;5.15;;;4.65;;
69417;SDS011;56610;48.872;2.400;2023-04-06T11:06:38;4.57;;;4.07;;
69417;SDS011;56610;48.872;2.400;2023-04-06T11:09:04;5.32;;;4.82;;
69417;SDS011;56610;48.872;2.400;2023-04-06T11:11:30;5.03;;;3.60;;
69417;SDS011;56610;48.872;2.400;2023-04-06T11:13:56;5.95;;;4.47;;
69417;SDS011;56610;48.872;2.400;2023-04-06T11:16:24;5.03;;;4.53;;
69417;SDS011;56610;48.872;2.400;2023-04-06T11:18:52;5.03;;;4.10;;
69417;SDS011;56610;48.872;2.400;2023-04-06T11:21:32;4.55;;;3.80;;
69417;SDS011;56610;48.872;2.400;2023-04-06T11:26:38;4.43;;;3.90;;
69417;SDS011;56610;48.872;2.400;2023-04-06T11:29:04;4.78;;;4.18;;
69417;SDS011;56610;48.872;2.400;2023-04-06T11:31:30;4.88;;;4.00;;
69417;SDS011;56610;48.872;2.400;2023-04-06T11:33:56;6.18;;;4.20;;
69417;SDS011;56610;48.872;2.400;2023-04-06T11:36:22;4.95;;;4.03;;
69417;SDS011;56610;48.872;2.400;2023-04-06T11:38:48;5.68;;;4.28;;
69417;SDS011;56610;48.872;2.400;2023-04-06T11:41:14;4.38;;;3.90;;
69417;SDS011;56610;48.872;2.400;2023-04-06T11:43:45;4.28;;;3.88;;
69417;SDS011;56610;48.872;2.400;2023-04-06T11:46:16;6.35;;;3.88;;
69417;SDS011;56610;48.872;2.400;2023-04-06T11:48:45;5.32;;;3.95;;
69417;SDS011;56610;48.872;2.400;2023-04-06T11:51:11;4.93;;;3.80;;
69417;SDS011;56610;48.872;2.400;2023-04-06T11:53:43;3.50;;;3.00;;
69417;SDS011;56610;48.872;2.400;2023-04-06T11:56:22;3.30;;;2.92;;
69417;SDS011;56610;48.872;2.400;2023-04-06T11:58:49;4.32;;;3.13;;
69417;SDS011;56610;48.872;2.400;2023-04-06T12:01:15;5.57;;;3.33;;
69417;SDS011;56610;48.872;2.400;2023-04-06T12:03:40;5.88;;;3.08;;
69417;SDS011;56610;48.872;2.400;2023-04-06T12:06:06;3.30;;;2.90;;
69417;SDS011;56610;48.872;2.400;2023-04-06T12:08:31;3.33;;;3.03;;
69417;SDS011;56610;48.872;2.400;2023-04-06T12:10:57;2.83;;;2.58;;
69417;SDS011;56610;48.872;2.400;2023-04-06T12:13:24;2.35;;;2.10;;
69417;SDS011;56610;48.872;2.400;2023-04-06T12:15:49;2.90;;;2.35;;
69417;SDS011;56610;48.872;2.400;2023-04-06T12:18:15;4.30;;;2.63;;
69417;SDS011;56610;48.872;2.400;2023-04-06T12:20:41;2.88;;;1.80;;
69417;SDS011;56610;48.872;2.400;2023-04-06T12:23:06;3.90;;;2.03;;
69417;SDS011;56610;48.872;2.400;2023-04-06T12:25:32;4.07;;;2.10;;
69417;SDS011;56610;48.872;2.400;2023-04-06T12:27:57;3.00;;;2.05;;
69417;SDS011;56610;48.872;2.400;2023-04-06T12:30:23;3.05;;;1.85;;
69417;SDS011;56610;48.872;2.400;2023-04-06T12:32:49;3.03;;;2.00;;
69417;SDS011;56610;48.872;2.400;2023-04-06T12:35:15;3.85;;;1.77;;
69417;SDS011;56610;48.872;2.400;2023-04-06T12:37:41;4.13;;;1.92;;
69417;SDS011;56610;48.872;2.400;2023-04-06T12:40:07;2.13;;;1.60;;
69417;SDS011;56610;48.872;2.400;2023-04-06T12:42:35;5.15;;;1.90;;
69417;SDS011;56610;48.872;2.400;2023-04-06T12:45:01;4.93;;;2.08;;
69417;SDS011;56610;48.872;2.400;2023-04-06T12:47:27;2.75;;;1.60;;
69417;SDS011;56610;48.872;2.400;2023-04-06T12:49:53;2.78;;;1.80;;
69417;SDS011;56610;48.872;2.400;2023-04-06T12:52:19;3.55;;;2.03;;
69417;SDS011;56610;48.872;2.400;2023-04-06T12:54:45;3.92;;;1.80;;
69417;SDS011;56610;48.872;2.400;2023-04-06T12:57:12;2.95;;;1.50;;
69417;SDS011;56610;48.872;2.400;2023-04-06T12:59:37;4.57;;;1.80;;
69417;SDS011;56610;48.872;2.400;2023-04-06T13:02:03;2.47;;;1.30;;
69417;SDS011;56610;48.872;2.400;2023-04-06T13:04:29;5.05;;;1.90;;
69417;SDS011;56610;48.872;2.400;2023-04-06T13:06:55;2.67;;;1.55;;
69417;SDS011;56610;48.872;2.400;2023-04-06T13:09:20;2.22;;;1.48;;
69417;SDS011;56610;48.872;2.400;2023-04-06T13:11:46;3.45;;;1.73;;
69417;SDS011;56610;48.872;2.400;2023-04-06T13:14:12;4.05;;;1.67;;
69417;SDS011;56610;48.872;2.400;2023-04-06T13:16:37;2.65;;;1.40;;
69417;SDS011;56610;48.872;2.400;2023-04-06T13:19:03;5.28;;;1.80;;
69417;SDS011;56610;48.872;2.400;2023-04-06T13:21:29;5.10;;;1.60;;
69417;SDS011;56610;48.872;2.400;2023-04-06T13:23:55;3.28;;;1.50;;
69417;SDS011;56610;48.872;2.400;2023-04-06T13:26:21;3.33;;;1.77;;
69417;SDS011;56610;48.872;2.400;2023-04-06T13:28:46;3.90;;;1.95;;
69417;SDS011;56610;48.872;2.400;2023-04-06T13:31:12;3.90;;;1.98;;
69417;SDS011;56610;48.872;2.400;2023-04-06T13:33:38;3.67;;;1.38;;
69417;SDS011;56610;48.872;2.400;2023-04-06T13:36:06;2.47;;;1.50;;
69417;SDS011;56610;48.872;2.400;2023-04-06T13:38:32;3.90;;;1.50;;
69417;SDS011;56610;48.872;2.400;2023-04-06T13:40:58;4.63;;;1.50;;
69417;SDS011;56610;48.872;2.400;2023-04-06T13:43:24;2.50;;;1.30;;
69417;SDS011;56610;48.872;2.400;2023-04-06T13:45:52;4.13;;;2.50;;
69417;SDS011;56610;48.872;2.400;2023-04-06T13:48:22;7.22;;;3.40;;
69417;SDS011;56610;48.872;2.400;2023-04-06T13:50:49;7.10;;;3.00;;
69417;SDS011;56610;48.872;2.400;2023-04-06T13:53:14;3.63;;;1.92;;
69417;SDS011;56610;48.872;2.400;2023-04-06T13:55:40;4.05;;;1.52;;
69417;SDS011;56610;48.872;2.400;2023-04-06T13:58:06;3.05;;;1.40;;
69417;SDS011;56610;48.872;2.400;2023-04-06T14:00:31;2.58;;;1.40;;
69417;SDS011;56610;48.872;2.400;2023-04-06T14:02:57;4.40;;;1.42;;
69417;SDS011;56610;48.872;2.400;2023-04-06T14:05:23;3.63;;;1.48;;
69417;SDS011;56610;48.872;2.400;2023-04-06T14:07:49;3.80;;;1.45;;
69417;SDS011;56610;48.872;2.400;2023-04-06T14:10:15;5.35;;;1.67;;
69417;SDS011;56610;48.872;2.400;2023-04-06T14:12:44;6.32;;;1.42;;
69417;SDS011;56610;48.872;2.400;2023-04-06T14:15:11;4.85;;;1.40;;
69417;SDS011;56610;48.872;2.400;2023-04-06T14:17:37;3.58;;;1.30;;
69417;SDS011;56610;48.872;2.400;2023-04-06T14:20:03;4.97;;;1.30;;
69417;SDS011;56610;48.872;2.400;2023-04-06T14:24:59;3.88;;;1.52;;
69417;SDS011;56610;48.872;2.400;2023-04-06T14:27:25;3.67;;;1.23;;
69417;SDS011;56610;48.872;2.400;2023-04-06T14:29:51;4.90;;;1.13;;
69417;SDS011;56610;48.872;2.400;2023-04-06T14:32:17;3.17;;;1.38;;
69417;SDS011;56610;48.872;2.400;2023-04-06T14:34:44;5.68;;;2.00;;
69417;SDS011;56610;48.872;2.400;2023-04-06T14:37:10;5.90;;;1.85;;
69417;SDS011;56610;48.872;2.400;2023-04-06T14:39:36;5.38;;;1.70;;
69417;SDS011;56610;48.872;2.400;2023-04-06T14:42:01;4.65;;;1.33;;
69417;SDS011;56610;48.872;2.400;2023-04-06T14:44:27;4.28;;;1.30;;
69417;SDS011;56610;48.872;2.400;2023-04-06T14:46:53;4.75;;;1.33;;
69417;SDS011;56610;48.872;2.400;2023-04-06T14:49:18;2.88;;;1.23;;
69417;SDS011;56610;48.872;2.400;2023-04-06T14:51:44;4.63;;;1.40;;